Weather


ICAO METAR
KAPA KAPA 220153Z 01018G29KT 10SM BKN110 BKN180 19/00 A3002 RMK AO2 PK WND 36039/0054 SLP117 T01890000
KASE KASE 220153Z 22006KT 10SM CLR 10/M07 A3017 RMK AO2 SLP152 T01001067
KBJC KBJC 220147Z 02018KT 20SM VCSH FEW060 SCT080 BKN120 19/00 A3003
KBKF KBKF 220158Z 02015G30KT 10SM BKN120 BKN180 17/02 A3004 RMK AO2A PK WND 35031/02 SLP115 T01710019
KCOS KCOS 220154Z 36017G28KT 10SM FEW080 BKN150 19/M02 A3000 RMK AO2 PK WND 36032/0138 SLP091 PRESRR FROPA T01891022 $
KCPR KCPR 220153Z 01007KT 10SM FEW080 FEW095 BKN120 10/02 A3007 RMK AO2 SLP162 T01000022
KCYS KCYS 220153Z 32014G23KT 10SM -RA BKN050 BKN060 OVC075 11/02 A3013 RMK AO2 LTG DSNT S RAE23B43 SLP157 P0000 T01110022
KDEN KDEN 220153Z 02021G34KT 10SM FEW080 BKN110 BKN200 17/02 A3001 RMK AO2 PK WND 01034/0136 SLP108 T01720022
KEGE KEGE 220156Z AUTO 00000KT 10SM CLR 14/M06 A3013 RMK AO2 SLP189 T01391056
KFCS KFCS 220158Z AUTO 33020G28KT 10SM BKN140 20/M03 A2995 RMK AO2 PK WND 33028/47 SLP095 T01961027 $
KFMN KFMN 220153Z 29009KT 10SM CLR 21/M11 A3002 RMK AO2 SLP128 T02061111
KFTG KFTG 220151Z 36020G31KT 10SM BKN120 BKN180 BKN220 18/02 A3003 RMK HZ WX
KGCC KGCC 220153Z AUTO 00000KT 10SM CLR 06/03 A3005 RMK AO2 SLP178 T00560033 $
KGJT KGJT 220153Z 02003KT 10SM CLR 16/M06 A3003 RMK AO2 SLP135 T01561061
KPUB KPUB 220153Z 23007KT 10SM CLR 24/M06 A2986 RMK AO2 SLP057 T02391056
KRAP KRAP 220152Z 34009KT 10SM CLR 11/06 A3001 RMK AO2 SLP162 T01060061
KRCA KRCA 220156Z AUTO 32012KT 10SM CLR 12/10 A3000 RMK AO2 VIS 3/8 RWY13 SLP160 T01150097 $

Surface Data
Click here.

This is a composite map contain the following analyses: radar summary (color filled areas), surface data plot (composite station model), frontal locations (in various bold lines) and pressure contours (in thin blue lines).